Time;durP1;ratioP1;P1;durP2;ratioP2;P2;SDS_P1;SDS_P2;PMS_P1;PMS_P2;Temp;Humidity;BMP_temperature;BMP_pressure;BME280_temperature;BME280_humidity;BME280_pressure;Samples;Min_cycle;Max_cycle;Signal;HPM_P1;HPM_P2
2023/06/09 00:01:22;;;;;;;7.43;4.37;;;;;;;;;;5071615;28;20204;-57
2023/06/09 00:03:51;;;;;;;6.50;4.57;;;;;;;;;;5071440;28;20225;-57
2023/06/09 00:06:22;;;;;;;10.03;4.57;;;;;;;;;;5071581;28;20790;-56
2023/06/09 00:08:48;;;;;;;5.00;3.63;;;;;;;;;;5071824;28;20204;-56
2023/06/09 00:11:14;;;;;;;7.30;4.23;;;;;;;;;;5071536;28;20249;-56
2023/06/09 00:13:42;;;;;;;6.60;4.03;;;;;;;;;;5071265;28;20188;-55
2023/06/09 00:16:08;;;;;;;8.13;5.00;;;;;;;;;;5071457;28;20225;-56
2023/06/09 00:18:34;;;;;;;8.83;4.50;;;;;;;;;;5071516;28;20660;-56
2023/06/09 00:21:00;;;;;;;8.93;4.83;;;;;;;;;;5071233;28;20654;-56
2023/06/09 00:23:28;;;;;;;6.73;4.47;;;;;;;;;;5071123;28;20238;-54
2023/06/09 00:25:54;;;;;;;6.47;4.67;;;;;;;;;;5071247;28;20271;-55
2023/06/09 00:28:20;;;;;;;5.93;4.40;;;;;;;;;;5071523;28;20629;-55
2023/06/09 00:30:47;;;;;;;5.57;4.50;;;;;;;;;;5071108;28;20670;-56
2023/06/09 00:33:13;;;;;;;7.13;4.53;;;;;;;;;;5071189;28;20201;-55
2023/06/09 00:35:39;;;;;;;5.57;4.10;;;;;;;;;;5071095;28;20204;-56
2023/06/09 00:38:05;;;;;;;7.33;4.33;;;;;;;;;;5071438;28;20632;-55
2023/06/09 00:40:31;;;;;;;7.20;4.50;;;;;;;;;;5071152;28;20272;-55
2023/06/09 00:42:57;;;;;;;7.17;4.20;;;;;;;;;;5070922;28;20229;-56
2023/06/09 00:45:23;;;;;;;9.70;4.97;;;;;;;;;;5071177;28;20202;-56
2023/06/09 00:47:51;;;;;;;6.27;4.07;;;;;;;;;;5077076;28;20198;-55
2023/06/09 00:50:19;;;;;;;7.47;4.13;;;;;;;;;;5077679;28;20620;-56
2023/06/09 00:52:45;;;;;;;9.03;4.67;;;;;;;;;;5077612;28;20192;-56
2023/06/09 00:55:12;;;;;;;8.13;4.40;;;;;;;;;;5077698;28;20207;-56
2023/06/09 00:57:39;;;;;;;6.93;3.83;;;;;;;;;;5077969;28;20198;-56
2023/06/09 01:00:06;;;;;;;5.97;3.87;;;;;;;;;;5077640;28;20298;-56
2023/06/09 01:02:32;;;;;;;7.53;4.57;;;;;;;;;;5077576;28;20236;-56
2023/06/09 01:05:00;;;;;;;7.10;4.40;;;;;;;;;;5077338;28;20280;-56
2023/06/09 01:07:30;;;;;;;8.73;4.57;;;;;;;;;;5077527;28;20634;-55
2023/06/09 01:09:58;;;;;;;7.40;4.23;;;;;;;;;;5077427;28;20277;-55
2023/06/09 01:12:34;;;;;;;6.03;4.13;;;;;;;;;;5077536;28;20200;-55
2023/06/09 01:15:02;;;;;;;8.03;4.33;;;;;;;;;;5077354;28;20201;-56
2023/06/09 01:17:32;;;;;;;6.17;4.93;;;;;;;;;;5077523;28;20278;-55
2023/06/09 01:20:04;;;;;;;10.13;4.57;;;;;;;;;;5077383;28;20620;-56
2023/06/09 01:22:37;;;;;;;7.60;4.37;;;;;;;;;;5077628;28;20223;-55
2023/06/09 01:25:11;;;;;;;6.17;4.57;;;;;;;;;;5077311;28;20781;-56
2023/06/09 01:27:39;;;;;;;8.20;4.20;;;;;;;;;;5077583;28;20260;-56
2023/06/09 01:30:06;;;;;;;6.13;4.33;;;;;;;;;;5077462;28;20217;-56
2023/06/09 01:32:33;;;;;;;11.47;4.60;;;;;;;;;;5077710;28;20220;-55
2023/06/09 01:34:59;;;;;;;5.50;4.20;;;;;;;;;;5077301;28;20216;-55
2023/06/09 01:37:26;;;;;;;7.93;4.60;;;;;;;;;;5077290;28;20213;-56
2023/06/09 01:39:52;;;;;;;9.60;4.43;;;;;;;;;;5077304;28;20285;-55
2023/06/09 01:42:18;;;;;;;6.53;4.60;;;;;;;;;;5077311;28;20236;-55
2023/06/09 01:44:45;;;;;;;6.40;4.30;;;;;;;;;;5077106;28;20206;-56
2023/06/09 01:47:12;;;;;;;7.67;4.20;;;;;;;;;;5077203;28;20245;-55
2023/06/09 01:49:42;;;;;;;8.50;4.87;;;;;;;;;;5077150;28;20662;-56
2023/06/09 01:52:09;;;;;;;5.87;4.33;;;;;;;;;;5077260;28;20622;-56
2023/06/09 01:54:38;;;;;;;7.27;4.70;;;;;;;;;;5077280;28;20201;-55
2023/06/09 01:57:06;;;;;;;5.70;4.30;;;;;;;;;;5077222;28;20202;-55
2023/06/09 01:59:36;;;;;;;7.28;4.88;;;;;;;;;;5071562;28;20391;-56
2023/06/09 02:02:04;;;;;;;7.10;4.70;;;;;;;;;;5072547;28;20510;-55
2023/06/09 02:04:31;;;;;;;6.27;4.27;;;;;;;;;;5073785;28;20468;-55
2023/06/09 02:06:57;;;;;;;7.33;4.60;;;;;;;;;;5073731;28;20699;-56
2023/06/09 02:09:23;;;;;;;5.03;4.20;;;;;;;;;;5073889;28;20201;-55
2023/06/09 02:11:50;;;;;;;5.50;4.60;;;;;;;;;;5073786;28;20275;-56
2023/06/09 02:14:17;;;;;;;9.30;5.13;;;;;;;;;;5073581;28;20198;-56
2023/06/09 02:16:43;;;;;;;7.73;4.90;;;;;;;;;;5073583;28;20202;-56
2023/06/09 02:19:12;;;;;;;7.37;4.93;;;;;;;;;;5073611;28;20664;-56
2023/06/09 02:21:38;;;;;;;9.73;4.60;;;;;;;;;;5073650;28;20206;-55
2023/06/09 02:24:04;;;;;;;8.07;4.90;;;;;;;;;;5073234;28;20241;-56
2023/06/09 02:26:30;;;;;;;6.83;4.70;;;;;;;;;;5073479;28;20618;-55
2023/06/09 02:28:57;;;;;;;7.10;4.87;;;;;;;;;;5073235;28;20204;-56
2023/06/09 02:31:23;;;;;;;5.03;4.53;;;;;;;;;;5073472;28;20205;-56
2023/06/09 02:33:49;;;;;;;6.07;4.73;;;;;;;;;;5073423;28;20306;-56
2023/06/09 02:36:16;;;;;;;7.60;4.40;;;;;;;;;;5073411;28;20198;-56
2023/06/09 02:38:42;;;;;;;11.37;5.20;;;;;;;;;;5073183;28;20201;-56
2023/06/09 02:41:08;;;;;;;6.00;4.30;;;;;;;;;;5073325;28;20196;-56
2023/06/09 02:43:34;;;;;;;8.07;4.70;;;;;;;;;;5073202;28;20639;-55
2023/06/09 02:46:00;;;;;;;8.03;4.80;;;;;;;;;;5073080;28;20224;-56
2023/06/09 02:48:26;;;;;;;6.10;4.37;;;;;;;;;;5073117;28;20254;-56
2023/06/09 02:50:52;;;;;;;7.80;4.77;;;;;;;;;;5073014;28;20221;-56
2023/06/09 02:53:20;;;;;;;9.47;5.20;;;;;;;;;;5073145;28;20660;-56
2023/06/09 02:55:46;;;;;;;6.43;4.97;;;;;;;;;;5072860;28;20288;-56
2023/06/09 02:58:15;;;;;;;7.20;4.67;;;;;;;;;;5072880;28;20649;-56
2023/06/09 03:00:44;;;;;;;9.13;4.80;;;;;;;;;;5072757;28;20619;-56
2023/06/09 03:03:10;;;;;;;6.23;4.53;;;;;;;;;;5072628;28;20677;-56
2023/06/09 03:05:40;;;;;;;8.30;5.03;;;;;;;;;;5072859;28;20308;-56
2023/06/09 03:08:06;;;;;;;8.23;4.40;;;;;;;;;;5072736;28;20229;-55
2023/06/09 03:10:33;;;;;;;9.23;4.90;;;;;;;;;;5072371;28;20262;-56
2023/06/09 03:12:59;;;;;;;8.37;4.70;;;;;;;;;;5072458;28;20206;-56
2023/06/09 03:15:25;;;;;;;7.73;4.70;;;;;;;;;;5072436;28;20211;-55
2023/06/09 03:17:51;;;;;;;6.40;4.83;;;;;;;;;;5072516;28;20205;-55
2023/06/09 03:20:19;;;;;;;11.17;5.33;;;;;;;;;;5072473;28;20208;-56
2023/06/09 03:22:45;;;;;;;6.73;4.97;;;;;;;;;;5072201;28;20233;-56
2023/06/09 03:25:12;;;;;;;7.77;4.70;;;;;;;;;;5072017;28;20737;-56
2023/06/09 03:27:39;;;;;;;8.70;5.20;;;;;;;;;;5072357;28;20256;-56
2023/06/09 03:30:06;;;;;;;7.83;4.77;;;;;;;;;;5072180;28;20572;-56
2023/06/09 03:32:32;;;;;;;6.80;4.40;;;;;;;;;;5072295;28;20209;-56
2023/06/09 03:34:58;;;;;;;6.43;4.70;;;;;;;;;;5072047;28;20210;-56
2023/06/09 03:37:24;;;;;;;5.70;4.70;;;;;;;;;;5072069;28;20263;-55
2023/06/09 03:39:50;;;;;;;7.20;4.17;;;;;;;;;;5072112;28;20202;-56
2023/06/09 03:42:16;;;;;;;7.77;5.00;;;;;;;;;;5071930;28;20225;-56
2023/06/09 03:44:43;;;;;;;6.40;4.57;;;;;;;;;;5071874;28;20280;-55
2023/06/09 03:47:09;;;;;;;6.73;4.80;;;;;;;;;;5071650;28;20201;-56
2023/06/09 03:49:35;;;;;;;7.30;5.00;;;;;;;;;;5071688;28;20204;-55
2023/06/09 03:52:01;;;;;;;7.40;4.87;;;;;;;;;;5070704;28;20263;-55
2023/06/09 03:54:27;;;;;;;7.50;4.67;;;;;;;;;;5071248;28;20263;-55
2023/06/09 03:56:53;;;;;;;8.30;5.40;;;;;;;;;;5071700;28;20202;-56
2023/06/09 03:59:19;;;;;;;7.13;4.60;;;;;;;;;;5071788;28;20195;-56
2023/06/09 04:01:48;;;;;;;9.70;4.70;;;;;;;;;;5071376;28;20277;-56
2023/06/09 04:04:14;;;;;;;6.53;4.37;;;;;;;;;;5071443;28;20229;-55
2023/06/09 04:06:45;;;;;;;5.67;4.63;;;;;;;;;;5071549;28;20284;-56
2023/06/09 04:09:12;;;;;;;5.17;4.17;;;;;;;;;;5071507;28;20255;-56
2023/06/09 04:11:38;;;;;;;8.53;4.90;;;;;;;;;;5071503;28;20203;-56
2023/06/09 04:14:04;;;;;;;7.90;4.73;;;;;;;;;;5071341;28;20208;-56
2023/06/09 04:16:30;;;;;;;5.40;4.07;;;;;;;;;;5071329;28;20225;-56
2023/06/09 04:18:58;;;;;;;9.90;4.57;;;;;;;;;;5071496;28;20286;-56
2023/06/09 04:21:24;;;;;;;7.90;4.90;;;;;;;;;;5070942;28;20206;-56
2023/06/09 04:23:50;;;;;;;8.20;4.63;;;;;;;;;;5071206;28;20591;-55
2023/06/09 04:26:16;;;;;;;8.03;4.80;;;;;;;;;;5071452;28;20197;-56
2023/06/09 04:28:42;;;;;;;4.97;4.00;;;;;;;;;;5071200;28;20576;-56
2023/06/09 04:31:08;;;;;;;8.33;4.90;;;;;;;;;;5071307;28;20289;-56
2023/06/09 04:33:36;;;;;;;6.63;4.67;;;;;;;;;;5071419;28;20560;-55
2023/06/09 04:36:03;;;;;;;7.43;4.53;;;;;;;;;;5071189;28;20197;-56
2023/06/09 04:38:32;;;;;;;6.43;4.23;;;;;;;;;;5071203;28;20580;-56
2023/06/09 04:41:01;;;;;;;6.83;4.20;;;;;;;;;;5071016;28;20280;-56
2023/06/09 04:43:27;;;;;;;6.87;4.03;;;;;;;;;;5070789;28;20429;-56
2023/06/09 04:45:55;;;;;;;5.80;4.57;;;;;;;;;;5070980;28;20206;-55
2023/06/09 04:48:21;;;;;;;6.90;4.70;;;;;;;;;;5071278;28;20253;-56
2023/06/09 04:50:47;;;;;;;6.50;4.70;;;;;;;;;;5071038;28;20269;-56
2023/06/09 04:53:15;;;;;;;7.60;4.47;;;;;;;;;;5070846;28;20664;-56
2023/06/09 04:55:41;;;;;;;8.47;5.07;;;;;;;;;;5070965;28;20205;-56
2023/06/09 04:58:07;;;;;;;7.73;4.27;;;;;;;;;;5070800;28;20235;-56
2023/06/09 05:00:35;;;;;;;5.33;4.57;;;;;;;;;;5071075;28;20202;-56
2023/06/09 05:03:02;;;;;;;6.80;5.10;;;;;;;;;;5070902;28;20640;-56
2023/06/09 05:05:28;;;;;;;5.47;4.77;;;;;;;;;;5070857;28;20221;-56
2023/06/09 05:07:54;;;;;;;5.47;4.57;;;;;;;;;;5070759;28;20192;-55
2023/06/09 05:10:22;;;;;;;5.37;4.87;;;;;;;;;;5070973;28;20202;-56
2023/06/09 05:12:49;;;;;;;6.60;4.57;;;;;;;;;;5070753;28;20193;-56
2023/06/09 05:15:15;;;;;;;6.60;4.63;;;;;;;;;;5070729;28;20196;-56
2023/06/09 05:17:44;;;;;;;7.13;5.13;;;;;;;;;;5070479;28;20198;-56
2023/06/09 05:20:11;;;;;;;7.87;4.87;;;;;;;;;;5070371;28;20194;-56
2023/06/09 05:22:37;;;;;;;4.70;4.17;;;;;;;;;;5070579;28;20218;-56
2023/06/09 05:25:03;;;;;;;5.87;4.47;;;;;;;;;;5070414;28;20241;-56
2023/06/09 05:27:31;;;;;;;8.47;5.03;;;;;;;;;;5070687;28;20240;-56
2023/06/09 05:29:57;;;;;;;6.87;4.40;;;;;;;;;;5070475;28;20212;-56
2023/06/09 05:32:23;;;;;;;8.37;5.23;;;;;;;;;;5071424;28;20192;-56
2023/06/09 05:34:49;;;;;;;7.53;5.33;;;;;;;;;;5074274;28;20291;-56
2023/06/09 05:37:15;;;;;;;7.40;4.77;;;;;;;;;;5074085;28;20214;-56
2023/06/09 05:39:41;;;;;;;5.13;4.47;;;;;;;;;;5074282;28;20201;-55
2023/06/09 05:42:07;;;;;;;7.27;4.70;;;;;;;;;;5074131;28;20222;-56
2023/06/09 05:44:35;;;;;;;4.70;4.20;;;;;;;;;;5074340;28;20204;-56
2023/06/09 05:47:01;;;;;;;7.27;4.80;;;;;;;;;;5073708;28;20205;-56
2023/06/09 05:49:27;;;;;;;6.95;4.88;;;;;;;;;;5072888;28;20512;-56
2023/06/09 05:51:53;;;;;;;5.97;5.10;;;;;;;;;;5074073;28;20286;-56
2023/06/09 05:54:19;;;;;;;5.87;4.87;;;;;;;;;;5074124;28;20293;-56
2023/06/09 05:56:45;;;;;;;7.10;5.23;;;;;;;;;;5073990;28;20205;-56
2023/06/09 05:59:11;;;;;;;6.73;4.90;;;;;;;;;;5073739;28;20645;-56
2023/06/09 06:01:39;;;;;;;8.83;5.77;;;;;;;;;;5074076;28;20305;-56
2023/06/09 06:04:05;;;;;;;6.30;4.80;;;;;;;;;;5073715;28;20712;-56
2023/06/09 06:06:31;;;;;;;7.80;5.10;;;;;;;;;;5073840;28;20243;-56
2023/06/09 06:08:57;;;;;;;6.60;5.20;;;;;;;;;;5073711;28;20230;-56
2023/06/09 06:11:23;;;;;;;5.37;4.63;;;;;;;;;;5073838;28;20198;-56
2023/06/09 06:13:49;;;;;;;5.03;4.53;;;;;;;;;;5073807;28;20199;-56
2023/06/09 06:16:15;;;;;;;6.37;5.00;;;;;;;;;;5073743;28;20199;-56
2023/06/09 06:18:43;;;;;;;7.30;5.23;;;;;;;;;;5073584;28;20612;-56
2023/06/09 06:21:11;;;;;;;6.10;4.80;;;;;;;;;;5073787;28;20209;-56
2023/06/09 06:23:37;;;;;;;7.00;4.80;;;;;;;;;;5073420;28;20234;-55
2023/06/09 06:26:03;;;;;;;6.83;4.87;;;;;;;;;;5073373;28;20214;-56
2023/06/09 06:28:29;;;;;;;5.97;4.73;;;;;;;;;;5073395;28;20191;-56
2023/06/09 06:30:55;;;;;;;7.53;5.20;;;;;;;;;;5073300;28;20199;-56
2023/06/09 06:33:21;;;;;;;6.30;5.10;;;;;;;;;;5073598;28;20199;-56
2023/06/09 06:35:48;;;;;;;7.90;4.80;;;;;;;;;;5073201;28;20671;-56
2023/06/09 06:38:14;;;;;;;6.53;5.07;;;;;;;;;;5073226;28;20200;-56
2023/06/09 06:40:42;;;;;;;5.47;4.70;;;;;;;;;;5073207;28;20210;-56
2023/06/09 06:43:08;;;;;;;6.47;5.00;;;;;;;;;;5072977;28;20231;-56
2023/06/09 06:45:34;;;;;;;6.47;5.00;;;;;;;;;;5072914;28;20730;-56
2023/06/09 06:48:01;;;;;;;9.67;5.30;;;;;;;;;;5072821;28;20195;-56
2023/06/09 06:50:27;;;;;;;6.20;4.73;;;;;;;;;;5073057;28;20199;-56
2023/06/09 06:52:54;;;;;;;6.77;4.60;;;;;;;;;;5072795;28;20195;-56
2023/06/09 06:55:20;;;;;;;8.67;4.87;;;;;;;;;;5072907;28;20290;-56
2023/06/09 06:57:46;;;;;;;5.17;4.37;;;;;;;;;;5072814;28;20238;-56
2023/06/09 07:00:14;;;;;;;5.53;4.70;;;;;;;;;;5072908;28;20226;-56
2023/06/09 07:02:40;;;;;;;5.10;4.60;;;;;;;;;;5072497;28;20294;-56
2023/06/09 07:05:06;;;;;;;7.07;4.93;;;;;;;;;;5072559;28;20756;-56
2023/06/09 07:07:32;;;;;;;4.80;4.03;;;;;;;;;;5072749;28;20195;-56
2023/06/09 07:10:00;;;;;;;6.63;4.60;;;;;;;;;;5072466;28;20525;-56
2023/06/09 07:12:26;;;;;;;5.73;4.73;;;;;;;;;;5072540;28;20226;-55
2023/06/09 07:14:52;;;;;;;5.43;4.47;;;;;;;;;;5072491;28;20195;-56
2023/06/09 07:17:18;;;;;;;4.63;4.23;;;;;;;;;;5072402;28;20211;-56
2023/06/09 07:19:44;;;;;;;5.73;4.43;;;;;;;;;;5070734;28;20294;-56
2023/06/09 07:22:10;;;;;;;6.97;4.70;;;;;;;;;;5071989;28;20271;-56
2023/06/09 07:24:36;;;;;;;8.50;4.60;;;;;;;;;;5072517;28;20242;-57
2023/06/09 07:27:03;;;;;;;5.00;4.50;;;;;;;;;;5072260;28;20549;-56
2023/06/09 07:29:30;;;;;;;5.30;4.47;;;;;;;;;;5072204;28;20599;-55
2023/06/09 07:31:56;;;;;;;5.60;4.57;;;;;;;;;;5072054;28;20195;-55
2023/06/09 07:34:27;;;;;;;4.60;4.07;;;;;;;;;;5072300;28;20241;-56
2023/06/09 07:36:53;;;;;;;6.27;4.60;;;;;;;;;;5071970;28;20203;-55
2023/06/09 07:39:19;;;;;;;7.07;4.50;;;;;;;;;;5072303;28;20250;-56
2023/06/09 07:41:45;;;;;;;5.50;4.30;;;;;;;;;;5071948;28;20184;-56
2023/06/09 07:44:12;;;;;;;5.07;4.57;;;;;;;;;;5071631;28;20224;-56
2023/06/09 07:46:38;;;;;;;4.97;4.43;;;;;;;;;;5072100;28;20223;-56
2023/06/09 07:49:04;;;;;;;5.73;4.43;;;;;;;;;;5071895;28;20199;-56
2023/06/09 07:51:36;;;;;;;4.60;4.20;;;;;;;;;;5071850;28;20199;-56
2023/06/09 07:54:03;;;;;;;4.93;4.43;;;;;;;;;;5071857;28;20242;-56
2023/06/09 07:56:29;;;;;;;4.73;4.33;;;;;;;;;;5070624;28;20199;-56
2023/06/09 07:58:55;;;;;;;5.37;4.77;;;;;;;;;;5071376;28;20222;-56
2023/06/09 08:01:22;;;;;;;8.83;4.50;;;;;;;;;;5071789;28;20253;-56
2023/06/09 08:03:48;;;;;;;4.83;4.33;;;;;;;;;;5071436;28;20230;-56
2023/06/09 08:06:14;;;;;;;6.57;4.60;;;;;;;;;;5071611;28;20581;-56
2023/06/09 08:08:41;;;;;;;5.97;4.37;;;;;;;;;;5071691;28;20196;-56
2023/06/09 08:11:07;;;;;;;4.83;4.40;;;;;;;;;;5071579;28;20204;-56
2023/06/09 08:13:33;;;;;;;7.23;4.80;;;;;;;;;;5071633;28;20213;-56
2023/06/09 08:15:59;;;;;;;4.77;4.37;;;;;;;;;;5071354;28;20195;-55
2023/06/09 08:18:26;;;;;;;4.90;4.40;;;;;;;;;;5071437;28;20199;-54
2023/06/09 08:20:52;;;;;;;5.30;4.20;;;;;;;;;;5071440;28;20207;-54
2023/06/09 08:23:20;;;;;;;7.40;4.50;;;;;;;;;;5071368;28;20238;-54
2023/06/09 08:25:46;;;;;;;4.90;4.50;;;;;;;;;;5071221;28;20315;-53
2023/06/09 08:28:12;;;;;;;5.70;4.60;;;;;;;;;;5071158;28;20195;-53
2023/06/09 08:30:38;;;;;;;6.43;4.60;;;;;;;;;;5071351;28;20295;-54
2023/06/09 08:33:04;;;;;;;5.00;4.57;;;;;;;;;;5071168;28;20268;-56
2023/06/09 08:35:32;;;;;;;6.07;4.50;;;;;;;;;;5071161;28;20275;-57
2023/06/09 08:37:58;;;;;;;5.97;4.17;;;;;;;;;;5071087;28;20682;-56
2023/06/09 08:40:24;;;;;;;6.90;4.20;;;;;;;;;;5071125;28;20228;-56
2023/06/09 08:45:54;;;;;;;6.50;4.10;;;;;;;;;;5071092;28;20234;-55
2023/06/09 08:48:20;;;;;;;5.57;4.63;;;;;;;;;;5071120;28;20209;-54
2023/06/09 08:50:48;;;;;;;10.20;4.10;;;;;;;;;;5070987;28;20191;-55
2023/06/09 08:53:14;;;;;;;7.70;5.27;;;;;;;;;;5070931;28;20298;-56
2023/06/09 08:55:40;;;;;;;7.53;4.87;;;;;;;;;;5070999;28;20198;-58
2023/06/09 08:58:06;;;;;;;4.97;4.47;;;;;;;;;;5071076;28;20193;-58
2023/06/09 09:00:32;;;;;;;5.27;4.87;;;;;;;;;;5071075;28;20649;-58
2023/06/09 09:02:58;;;;;;;5.93;4.40;;;;;;;;;;5070676;28;20217;-58
2023/06/09 09:05:24;;;;;;;6.97;4.60;;;;;;;;;;5070721;28;20317;-58
2023/06/09 09:07:52;;;;;;;6.30;4.60;;;;;;;;;;5072436;28;20233;-59
2023/06/09 09:10:18;;;;;;;5.53;4.83;;;;;;;;;;5074916;28;20210;-59
2023/06/09 09:12:50;;;;;;;5.10;4.30;;;;;;;;;;5074868;28;20194;-58
2023/06/09 09:15:16;;;;;;;5.77;4.30;;;;;;;;;;5074725;28;20203;-59
2023/06/09 09:17:44;;;;;;;6.10;4.20;;;;;;;;;;5074766;28;20216;-59
2023/06/09 09:20:11;;;;;;;7.63;4.70;;;;;;;;;;5074634;28;20198;-59
2023/06/09 09:22:47;;;;;;;6.90;4.00;;;;;;;;;;5075812;28;20233;-59
2023/06/09 09:25:22;;;;;;;4.97;4.30;;;;;;;;;;5074218;28;20231;-59
2023/06/09 09:27:58;;;;;;;5.03;3.87;;;;;;;;;;5075066;28;20276;-58
2023/06/09 09:30:39;;;;;;;4.57;4.17;;;;;;;;;;5074542;28;20187;-58
2023/06/09 09:33:06;;;;;;;5.00;4.53;;;;;;;;;;5074823;28;20206;-60
2023/06/09 09:35:32;;;;;;;6.43;4.63;;;;;;;;;;5074860;28;20199;-58
2023/06/09 09:37:58;;;;;;;6.13;5.00;;;;;;;;;;5074472;28;20200;-58
2023/06/09 09:40:25;;;;;;;7.93;4.87;;;;;;;;;;5074277;28;20207;-58
2023/06/09 09:42:51;;;;;;;6.60;5.03;;;;;;;;;;5074187;28;20219;-58
2023/06/09 09:45:25;;;;;;;5.80;4.43;;;;;;;;;;5074240;28;20220;-59
2023/06/09 09:47:51;;;;;;;4.83;4.40;;;;;;;;;;5074417;28;20339;-58
2023/06/09 09:50:24;;;;;;;4.80;4.30;;;;;;;;;;5074158;28;20204;-58
2023/06/09 09:52:51;;;;;;;5.37;4.50;;;;;;;;;;5074205;28;20251;-58
2023/06/09 09:55:17;;;;;;;4.60;4.20;;;;;;;;;;5073619;28;20189;-58
2023/06/09 09:57:45;;;;;;;5.70;4.53;;;;;;;;;;5074116;28;20278;-58
2023/06/09 10:00:13;;;;;;;8.13;4.10;;;;;;;;;;5073914;28;20302;-58
2023/06/09 10:02:40;;;;;;;5.17;4.30;;;;;;;;;;5073861;28;20227;-58
2023/06/09 10:05:08;;;;;;;5.80;4.20;;;;;;;;;;5073761;28;20234;-58
2023/06/09 10:07:38;;;;;;;5.20;4.00;;;;;;;;;;5073890;28;20204;-58
2023/06/09 10:10:04;;;;;;;5.30;4.40;;;;;;;;;;5073908;28;20199;-58
2023/06/09 10:12:31;;;;;;;5.03;4.27;;;;;;;;;;5073651;28;20711;-58
2023/06/09 10:14:58;;;;;;;5.50;3.97;;;;;;;;;;5073664;28;20211;-59
2023/06/09 10:17:26;;;;;;;4.70;4.30;;;;;;;;;;5073507;28;20250;-58
2023/06/09 10:19:52;;;;;;;5.97;4.20;;;;;;;;;;5072807;28;20200;-58
2023/06/09 10:22:18;;;;;;;5.83;4.50;;;;;;;;;;5073543;28;20360;-58
2023/06/09 10:24:46;;;;;;;3.83;3.47;;;;;;;;;;5073293;28;20254;-59
2023/06/09 10:27:13;;;;;;;5.87;3.80;;;;;;;;;;5073257;28;20215;-59
2023/06/09 10:29:40;;;;;;;5.13;3.70;;;;;;;;;;5073410;28;20301;-59
2023/06/09 10:32:09;;;;;;;6.40;4.10;;;;;;;;;;5073442;28;20205;-59
2023/06/09 10:34:36;;;;;;;4.63;3.73;;;;;;;;;;5073610;28;20255;-59
2023/06/09 10:37:03;;;;;;;5.93;3.73;;;;;;;;;;5073138;28;20213;-59
2023/06/09 10:39:31;;;;;;;6.30;3.57;;;;;;;;;;5073045;28;20738;-59
2023/06/09 10:42:03;;;;;;;3.40;3.07;;;;;;;;;;5073118;28;20219;-59
2023/06/09 10:44:36;;;;;;;8.70;3.70;;;;;;;;;;5073204;28;20222;-59
2023/06/09 10:47:02;;;;;;;4.20;3.13;;;;;;;;;;5072956;28;20233;-59
2023/06/09 10:49:36;;;;;;;4.30;3.70;;;;;;;;;;5073150;28;20218;-60
2023/06/09 10:52:02;;;;;;;5.23;3.70;;;;;;;;;;5072865;28;20199;-60
2023/06/09 10:54:30;;;;;;;5.00;3.90;;;;;;;;;;5072952;28;20206;-61
2023/06/09 10:56:57;;;;;;;5.37;3.53;;;;;;;;;;5072743;28;20257;-59
2023/06/09 10:59:42;;;;;;;4.67;3.70;;;;;;;;;;5072989;28;20287;-60
2023/06/09 11:02:20;;;;;;;4.70;3.67;;;;;;;;;;5072758;28;20223;-59
2023/06/09 11:04:52;;;;;;;4.30;3.87;;;;;;;;;;5072597;28;20239;-59
2023/06/09 11:07:19;;;;;;;5.00;3.30;;;;;;;;;;5072545;28;20204;-60
2023/06/09 11:10:15;;;;;;;5.73;3.83;;;;;;;;;;5072606;28;20197;-60
2023/06/09 11:12:44;;;;;;;6.70;3.50;;;;;;;;;;5072529;28;20202;-60
2023/06/09 11:15:11;;;;;;;4.23;3.70;;;;;;;;;;5072281;28;20205;-59
2023/06/09 11:17:39;;;;;;;4.40;3.70;;;;;;;;;;5072586;28;20223;-59
2023/06/09 11:20:14;;;;;;;4.47;3.83;;;;;;;;;;5072458;28;20274;-59
2023/06/09 11:22:59;;;;;;;6.70;3.40;;;;;;;;;;5072104;28;20213;-59
2023/06/09 11:25:34;;;;;;;4.13;3.73;;;;;;;;;;5071949;28;20369;-59
2023/06/09 11:28:14;;;;;;;4.50;3.63;;;;;;;;;;5071860;28;20250;-59
2023/06/09 11:30:55;;;;;;;6.43;3.87;;;;;;;;;;5070596;28;20209;-58
2023/06/09 11:33:36;;;;;;;5.20;3.40;;;;;;;;;;5071989;28;20206;-59
2023/06/09 11:36:04;;;;;;;4.67;3.40;;;;;;;;;;5072017;28;20202;-59
2023/06/09 11:38:30;;;;;;;4.07;3.67;;;;;;;;;;5071704;28;20666;-59
2023/06/09 11:40:56;;;;;;;5.30;3.83;;;;;;;;;;5072040;28;20224;-59
2023/06/09 11:43:22;;;;;;;5.83;3.53;;;;;;;;;;5071672;28;20263;-59
2023/06/09 11:45:48;;;;;;;4.33;3.40;;;;;;;;;;5071884;28;20196;-59
2023/06/09 11:48:15;;;;;;;4.47;4.07;;;;;;;;;;5071556;28;20197;-58
2023/06/09 11:50:42;;;;;;;4.47;3.60;;;;;;;;;;5071641;28;20198;-59
2023/06/09 11:53:10;;;;;;;5.77;3.77;;;;;;;;;;5071486;28;20228;-58
2023/06/09 11:55:36;;;;;;;4.07;3.63;;;;;;;;;;5071854;28;20204;-60
2023/06/09 11:58:04;;;;;;;4.17;3.67;;;;;;;;;;5071490;28;20204;-58
2023/06/09 12:00:32;;;;;;;5.17;4.00;;;;;;;;;;5071407;28;20281;-58
2023/06/09 12:02:58;;;;;;;5.47;3.90;;;;;;;;;;5071302;28;20226;-58
2023/06/09 12:05:26;;;;;;;5.03;3.73;;;;;;;;;;5071329;28;20726;-58
2023/06/09 12:07:53;;;;;;;3.97;3.57;;;;;;;;;;5071555;28;20202;-57
2023/06/09 12:10:22;;;;;;;3.57;3.27;;;;;;;;;;5071452;28;20208;-58
2023/06/09 12:12:48;;;;;;;6.03;3.83;;;;;;;;;;5071250;28;20212;-57
2023/06/09 12:15:15;;;;;;;6.83;3.83;;;;;;;;;;5071000;28;20672;-57
2023/06/09 12:17:41;;;;;;;4.20;3.90;;;;;;;;;;5070947;28;20547;-58
2023/06/09 12:20:20;;;;;;;5.50;3.93;;;;;;;;;;5071159;28;20219;-58
2023/06/09 12:22:46;;;;;;;6.03;4.10;;;;;;;;;;5071045;28;20204;-58
2023/06/09 12:25:24;;;;;;;6.77;3.93;;;;;;;;;;5070937;28;20328;-58
2023/06/09 12:27:51;;;;;;;6.63;4.27;;;;;;;;;;5071332;28;20209;-59
2023/06/09 12:30:31;;;;;;;4.00;3.60;;;;;;;;;;5071077;28;20211;-58
2023/06/09 12:32:57;;;;;;;4.53;3.77;;;;;;;;;;5070999;28;20662;-59
2023/06/09 12:35:24;;;;;;;4.53;3.80;;;;;;;;;;5070945;28;20276;-59
2023/06/09 12:37:50;;;;;;;5.17;3.90;;;;;;;;;;5071144;28;20212;-59
2023/06/09 12:40:16;;;;;;;4.57;4.10;;;;;;;;;;5070796;28;20216;-59
2023/06/09 12:42:47;;;;;;;7.60;4.17;;;;;;;;;;5070625;28;20411;-59
2023/06/09 12:45:13;;;;;;;4.40;4.00;;;;;;;;;;5070754;28;20202;-59
2023/06/09 12:47:46;;;;;;;6.20;4.07;;;;;;;;;;5070883;28;20210;-59
2023/06/09 12:50:12;;;;;;;5.13;4.10;;;;;;;;;;5070917;28;20203;-58
2023/06/09 12:52:38;;;;;;;4.73;4.20;;;;;;;;;;5071193;28;20198;-58
2023/06/09 12:55:05;;;;;;;4.90;4.40;;;;;;;;;;5070775;28;20187;-58
2023/06/09 12:57:31;;;;;;;4.37;3.97;;;;;;;;;;5070896;28;20207;-58
2023/06/09 13:00:01;;;;;;;4.83;3.80;;;;;;;;;;5071010;28;20690;-59
2023/06/09 13:02:27;;;;;;;4.70;4.10;;;;;;;;;;5070811;28;20234;-59
2023/06/09 13:04:53;;;;;;;3.80;3.50;;;;;;;;;;5070673;28;20287;-58
2023/06/09 13:07:19;;;;;;;5.73;3.50;;;;;;;;;;5070572;28;20307;-59
2023/06/09 13:09:45;;;;;;;4.17;3.43;;;;;;;;;;5070502;28;20705;-59
2023/06/09 13:12:11;;;;;;;5.23;4.13;;;;;;;;;;5070334;28;20234;-58
2023/06/09 13:14:37;;;;;;;6.37;3.73;;;;;;;;;;5070718;28;20553;-59
2023/06/09 13:17:05;;;;;;;5.17;4.00;;;;;;;;;;5070525;28;20198;-58
2023/06/09 13:19:31;;;;;;;6.03;3.90;;;;;;;;;;5070588;28;20216;-59
2023/06/09 13:21:57;;;;;;;3.90;3.50;;;;;;;;;;5070914;28;20199;-59
2023/06/09 13:24:23;;;;;;;4.83;3.53;;;;;;;;;;5070852;28;20244;-59
2023/06/09 13:26:49;;;;;;;5.33;3.97;;;;;;;;;;5071027;28;20224;-59
2023/06/09 13:29:15;;;;;;;4.20;3.77;;;;;;;;;;5070887;28;20246;-59
2023/06/09 13:31:41;;;;;;;4.10;3.70;;;;;;;;;;5070807;28;20660;-59
2023/06/09 13:34:09;;;;;;;5.20;3.87;;;;;;;;;;5070901;28;20246;-59
2023/06/09 13:36:35;;;;;;;3.93;3.53;;;;;;;;;;5071136;28;20206;-59
2023/06/09 13:39:01;;;;;;;4.13;3.50;;;;;;;;;;5070615;28;20202;-59
2023/06/09 13:41:30;;;;;;;4.60;3.90;;;;;;;;;;5070670;28;20738;-58
2023/06/09 13:43:56;;;;;;;3.60;3.30;;;;;;;;;;5070256;28;20234;-59
2023/06/09 13:46:22;;;;;;;3.80;3.47;;;;;;;;;;5070817;28;20190;-58
2023/06/09 13:48:48;;;;;;;5.00;4.00;;;;;;;;;;5068477;28;20210;-58
2023/06/09 13:51:16;;;;;;;4.27;3.87;;;;;;;;;;5070679;28;20194;-58
2023/06/09 13:53:42;;;;;;;4.47;3.47;;;;;;;;;;5071771;28;20206;-59
2023/06/09 13:56:08;;;;;;;4.07;3.60;;;;;;;;;;5074328;28;20695;-60
2023/06/09 13:58:34;;;;;;;4.33;3.30;;;;;;;;;;5074446;28;20679;-59
2023/06/09 14:01:00;;;;;;;4.27;3.57;;;;;;;;;;5074359;28;20290;-59
2023/06/09 14:03:26;;;;;;;3.97;3.57;;;;;;;;;;5074196;28;20699;-59
2023/06/09 14:05:52;;;;;;;3.63;3.27;;;;;;;;;;5074401;28;20218;-58
2023/06/09 14:08:19;;;;;;;4.33;3.50;;;;;;;;;;5074203;28;20625;-58
2023/06/09 14:10:47;;;;;;;5.33;3.90;;;;;;;;;;5074273;28;20206;-58
2023/06/09 14:13:13;;;;;;;4.50;4.07;;;;;;;;;;5074081;28;20291;-59
2023/06/09 14:15:39;;;;;;;4.30;3.67;;;;;;;;;;5074094;28;20199;-59
2023/06/09 14:18:13;;;;;;;3.93;3.53;;;;;;;;;;5074173;28;20195;-57
2023/06/09 14:20:39;;;;;;;4.60;3.70;;;;;;;;;;5073867;28;20204;-58
2023/06/09 14:23:08;;;;;;;5.70;3.63;;;;;;;;;;5073994;28;20211;-59
2023/06/09 14:25:48;;;;;;;4.20;3.47;;;;;;;;;;5073645;28;20574;-58
2023/06/09 14:28:14;;;;;;;4.60;3.63;;;;;;;;;;5073577;28;20199;-58
2023/06/09 14:30:40;;;;;;;4.30;3.60;;;;;;;;;;5073613;28;20209;-59
2023/06/09 14:33:06;;;;;;;4.40;3.60;;;;;;;;;;5073637;28;20256;-59
2023/06/09 14:35:32;;;;;;;4.50;3.10;;;;;;;;;;5073748;28;20755;-59
2023/06/09 14:37:58;;;;;;;5.20;3.20;;;;;;;;;;5073671;28;20279;-59
2023/06/09 14:40:25;;;;;;;3.80;3.33;;;;;;;;;;5073531;28;20199;-59
2023/06/09 14:42:53;;;;;;;4.63;3.93;;;;;;;;;;5073498;28;20593;-59
2023/06/09 14:45:23;;;;;;;3.70;3.33;;;;;;;;;;5073444;28;20202;-59
2023/06/09 14:47:51;;;;;;;4.87;3.80;;;;;;;;;;5073442;28;20204;-59